Time;durP1;ratioP1;P1;durP2;ratioP2;P2;SDS_P1;SDS_P2;PMS_P1;PMS_P2;Temp;Humidity;BMP_temperature;BMP_pressure;BME280_temperature;BME280_humidity;BME280_pressure;Samples;Min_cycle;Max_cycle;Signal;HPM_P1;HPM_P2
2022/09/05 00:00:19;;;;;;;6.43;5.13;;;16.90;99.90;;;;;;5070090;28;20163;-82
2022/09/05 00:03:12;;;;;;;6.13;4.67;;;16.90;99.90;;;;;;5069749;28;20175;-82
2022/09/05 00:06:05;;;;;;;5.37;4.83;;;16.90;99.90;;;;;;5069812;28;20156;-82
2022/09/05 00:09:03;;;;;;;5.73;5.20;;;16.90;99.90;;;;;;5069650;28;20201;-83
2022/09/05 00:12:08;;;;;;;4.90;4.60;;;16.90;99.90;;;;;;5069337;28;20183;-82
2022/09/05 00:14:55;;;;;;;5.50;5.20;;;16.70;99.90;;;;;;5046852;28;20201;-81
2022/09/05 00:17:26;;;;;;;7.33;5.20;;;16.60;99.90;;;;;;5047020;28;20605;-82
2022/09/05 00:19:52;;;;;;;5.50;5.10;;;16.60;99.90;;;;;;5030265;28;20191;-81
2022/09/05 00:22:39;;;;;;;5.70;5.20;;;16.50;99.90;;;;;;5030290;28;20180;-82
2022/09/05 00:25:49;;;;;;;5.33;5.03;;;16.40;99.90;;;;;;5046839;28;20182;-82
2022/09/05 00:28:47;;;;;;;5.30;4.90;;;16.50;99.90;;;;;;5046749;28;20211;-81
2022/09/05 00:31:17;;;;;;;5.60;5.20;;;16.40;99.90;;;;;;5047148;28;20272;-80
2022/09/05 00:34:05;;;;;;;5.00;4.70;;;16.40;99.90;;;;;;5046977;28;20644;-81
2022/09/05 00:36:44;;;;;;;5.67;5.10;;;16.40;99.90;;;;;;5047095;28;20164;-82
2022/09/05 00:39:39;;;;;;;5.07;4.67;;;16.50;99.90;;;;;;5047255;28;20653;-83
2022/09/05 00:42:16;;;;;;;5.30;4.80;;;16.50;99.90;;;;;;5046704;28;20193;-82
2022/09/05 00:45:01;;;;;;;4.70;4.50;;;16.40;99.90;;;;;;5036889;28;20196;-82
2022/09/05 00:47:43;;;;;;;5.30;5.00;;;16.50;99.90;;;;;;5070904;28;20189;-81
2022/09/05 00:50:19;;;;;;;5.03;4.73;;;16.50;99.90;;;;;;5073033;28;20166;-82
2022/09/05 00:52:50;;;;;;;5.40;5.10;;;16.50;99.90;;;;;;5071670;28;20170;-81
2022/09/05 00:55:45;;;;;;;5.53;5.03;;;16.50;99.90;;;;;;5071801;28;20205;-81
2022/09/05 00:58:38;;;;;;;4.80;4.60;;;16.40;99.90;;;;;;5071498;28;20656;-82
2022/09/05 01:01:28;;;;;;;5.20;4.90;;;16.30;99.90;;;;;;5073113;28;20844;-81
2022/09/05 01:04:17;;;;;;;4.93;4.63;;;16.30;99.90;;;;;;5072912;28;20160;-81
2022/09/05 01:07:20;;;;;;;5.60;4.83;;;16.30;99.90;;;;;;5062188;28;20241;-81
2022/09/05 01:10:02;;;;;;;5.30;4.90;;;16.30;99.90;;;;;;5072545;28;20191;-80
2022/09/05 01:12:54;;;;;;;5.03;4.60;;;16.20;99.90;;;;;;5072577;28;20585;-81
2022/09/05 01:15:43;;;;;;;5.20;4.90;;;16.30;99.90;;;;;;5072726;28;20159;-81
2022/09/05 01:18:35;;;;;;;4.73;4.53;;;16.30;99.90;;;;;;5072673;28;20162;-81
2022/09/05 01:21:15;;;;;;;5.03;4.73;;;16.30;99.90;;;;;;5072614;28;20250;-82
2022/09/05 01:23:56;;;;;;;5.13;4.73;;;16.20;99.90;;;;;;5072577;28;20169;-81
2022/09/05 01:26:58;;;;;;;4.77;4.47;;;16.30;99.90;;;;;;5072844;28;20223;-81
2022/09/05 01:29:39;;;;;;;4.90;4.70;;;16.20;99.90;;;;;;5096771;28;20174;-80
2022/09/05 01:32:31;;;;;;;5.43;5.03;;;16.20;99.90;;;;;;5088612;28;20687;-82
2022/09/05 01:35:39;;;;;;;5.53;5.13;;;16.20;99.90;;;;;;5073100;28;20173;-81
2022/09/05 01:38:14;;;;;;;5.00;4.70;;;16.20;99.90;;;;;;5071072;28;20555;-80
2022/09/05 01:40:57;;;;;;;5.67;4.67;;;16.20;99.90;;;;;;5070966;28;20220;-81
2022/09/05 01:43:44;;;;;;;5.20;4.70;;;16.20;99.90;;;;;;5070831;28;20182;-80
2022/09/05 01:46:29;;;;;;;4.97;4.50;;;16.30;99.90;;;;;;5072092;28;20156;-81
2022/09/05 01:49:14;;;;;;;5.47;4.50;;;16.30;99.90;;;;;;5071928;28;20309;-81
2022/09/05 01:52:18;;;;;;;4.77;4.50;;;16.40;99.90;;;;;;5072100;28;20627;-81
2022/09/05 01:54:46;;;;;;;5.93;5.30;;;16.30;99.90;;;;;;5071914;28;20185;-82
2022/09/05 01:57:50;;;;;;;5.07;4.63;;;16.40;99.90;;;;;;5071874;28;20179;-81
2022/09/05 02:00:23;;;;;;;5.00;4.60;;;16.30;99.90;;;;;;5071557;28;20656;-81
2022/09/05 02:03:00;;;;;;;4.90;4.60;;;16.30;99.90;;;;;;5071727;28;20214;-81
2022/09/05 02:05:41;;;;;;;4.80;4.50;;;16.30;99.90;;;;;;5071550;28;20159;-81
2022/09/05 02:08:11;;;;;;;4.77;4.37;;;16.40;99.90;;;;;;5071581;28;20191;-81
2022/09/05 02:10:47;;;;;;;4.87;4.50;;;16.30;99.90;;;;;;5071363;28;20275;-80
2022/09/05 02:13:34;;;;;;;4.93;4.60;;;16.40;99.90;;;;;;5071519;28;20162;-80
2022/09/05 02:16:12;;;;;;;5.17;4.77;;;16.30;99.90;;;;;;5070292;28;20270;-80
2022/09/05 02:19:13;;;;;;;5.73;5.33;;;16.30;99.90;;;;;;5071377;28;20161;-81
2022/09/05 02:21:54;;;;;;;5.40;5.03;;;16.20;99.90;;;;;;5071409;28;20180;-81
2022/09/05 02:24:32;;;;;;;5.57;5.00;;;16.10;99.90;;;;;;5071368;28;20246;-81
2022/09/05 02:27:25;;;;;;;4.87;4.47;;;16.10;99.90;;;;;;5071189;28;20177;-81
2022/09/05 02:30:04;;;;;;;5.10;4.80;;;16.10;99.90;;;;;;5071318;28;20170;-81
2022/09/05 02:32:51;;;;;;;5.63;4.93;;;16.10;99.90;;;;;;5071158;28;20158;-81
2022/09/05 02:35:38;;;;;;;5.07;4.67;;;16.10;99.90;;;;;;5070896;28;20169;-82
2022/09/05 02:38:35;;;;;;;5.00;4.70;;;16.10;99.90;;;;;;5071242;28;20227;-82
2022/09/05 02:41:31;;;;;;;5.00;4.60;;;16.10;99.90;;;;;;5071106;28;20205;-81
2022/09/05 02:44:01;;;;;;;5.20;4.90;;;16.10;99.90;;;;;;5070712;28;20710;-81
2022/09/05 02:46:40;;;;;;;4.90;4.50;;;16.10;99.90;;;;;;5069424;28;20167;-82
2022/09/05 02:49:08;;;;;;;5.40;5.00;;;16.20;99.90;;;;;;5070660;28;20502;-81
2022/09/05 02:51:49;;;;;;;4.87;4.57;;;16.20;99.90;;;;;;5070742;28;20175;-82
2022/09/05 02:54:27;;;;;;;5.67;4.87;;;16.10;99.90;;;;;;5070547;28;20626;-83
2022/09/05 02:56:59;;;;;;;4.57;4.27;;;16.20;99.90;;;;;;5070538;28;20166;-82
2022/09/05 02:59:56;;;;;;;4.60;4.40;;;16.20;99.90;;;;;;5070220;28;20228;-81
2022/09/05 03:02:40;;;;;;;4.50;4.30;;;16.20;99.90;;;;;;5070502;28;20242;-80
2022/09/05 03:05:36;;;;;;;4.40;4.20;;;16.10;99.90;;;;;;5070495;28;20324;-80
2022/09/05 03:08:13;;;;;;;4.60;4.30;;;16.10;99.90;;;;;;5091861;28;20236;-82
2022/09/05 03:10:57;;;;;;;4.47;4.07;;;16.20;99.90;;;;;;5080710;28;20265;-81
2022/09/05 03:13:35;;;;;;;4.97;4.67;;;16.20;99.90;;;;;;5071050;28;20177;-81
2022/09/05 03:16:32;;;;;;;4.70;4.40;;;16.20;99.90;;;;;;5070715;28;20217;-82
2022/09/05 03:19:16;;;;;;;4.70;4.40;;;16.10;99.90;;;;;;5070411;28;20249;-81
2022/09/05 03:22:12;;;;;;;4.53;4.23;;;16.00;99.90;;;;;;5070362;28;20178;-81
2022/09/05 03:25:06;;;;;;;4.67;4.47;;;16.00;99.90;;;;;;5070239;28;20153;-81
2022/09/05 03:27:50;;;;;;;4.43;4.23;;;16.00;99.90;;;;;;5070206;28;20163;-82
2022/09/05 03:30:20;;;;;;;4.90;4.57;;;15.90;99.90;;;;;;5070131;28;20167;-82
2022/09/05 03:33:07;;;;;;;4.70;4.37;;;15.90;99.90;;;;;;5070053;28;20196;-82
2022/09/05 03:36:15;;;;;;;4.57;4.20;;;15.90;99.90;;;;;;5068783;28;20269;-82
2022/09/05 03:39:15;;;;;;;4.70;4.30;;;15.90;99.90;;;;;;5062437;28;20184;-82
2022/09/05 03:42:06;;;;;;;5.03;4.63;;;15.90;99.90;;;;;;5070166;28;20164;-81
2022/09/05 03:44:48;;;;;;;5.47;4.93;;;15.80;99.90;;;;;;5070140;28;20163;-83
2022/09/05 03:47:38;;;;;;;5.33;5.03;;;15.80;99.90;;;;;;5069970;28;20239;-82
2022/09/05 03:50:07;;;;;;;5.10;4.70;;;15.80;99.90;;;;;;5069781;28;20191;-82
2022/09/05 03:52:53;;;;;;;5.13;4.63;;;15.80;99.90;;;;;;5069879;28;20178;-82
2022/09/05 03:55:31;;;;;;;7.53;4.67;;;15.80;99.90;;;;;;5069691;28;20187;-82
2022/09/05 03:58:19;;;;;;;5.20;4.90;;;15.80;99.90;;;;;;5069640;28;20223;-82
2022/09/05 04:01:22;;;;;;;5.23;4.73;;;15.80;99.90;;;;;;5068528;28;20189;-82
2022/09/05 04:03:53;;;;;;;6.50;5.00;;;15.80;99.90;;;;;;5070410;28;20159;-82
2022/09/05 04:06:33;;;;;;;5.53;5.03;;;15.70;99.90;;;;;;5069813;28;20504;-81
2022/09/05 04:09:12;;;;;;;5.10;4.70;;;15.70;99.90;;;;;;5069818;28;20610;-82
2022/09/05 04:11:48;;;;;;;5.20;4.80;;;15.70;99.90;;;;;;5069738;28;20161;-81
2022/09/05 04:14:23;;;;;;;4.70;4.40;;;15.70;99.90;;;;;;5068500;28;20163;-81
2022/09/05 04:16:57;;;;;;;4.90;4.50;;;15.70;99.90;;;;;;5069727;28;20250;-82
2022/09/05 04:19:47;;;;;;;4.73;4.43;;;15.70;99.90;;;;;;5069774;28;20181;-82
2022/09/05 04:22:22;;;;;;;5.07;4.63;;;15.60;99.90;;;;;;5071234;28;20160;-82
2022/09/05 04:25:13;;;;;;;4.73;4.40;;;15.60;99.90;;;;;;5073520;28;20178;-80
2022/09/05 04:27:52;;;;;;;6.13;4.77;;;15.60;99.90;;;;;;5073504;28;20201;-81
2022/09/05 04:30:43;;;;;;;6.03;4.90;;;15.60;99.90;;;;;;5073445;28;20688;-81
2022/09/05 04:33:20;;;;;;;4.67;4.43;;;15.60;99.90;;;;;;5073490;28;20176;-80
2022/09/05 04:36:22;;;;;;;5.30;5.00;;;15.50;99.90;;;;;;5073251;28;20174;-81
2022/09/05 04:39:08;;;;;;;4.93;4.57;;;15.50;99.90;;;;;;5073347;28;20271;-81
2022/09/05 04:41:42;;;;;;;5.03;4.70;;;15.50;99.90;;;;;;5073358;28;20175;-81
2022/09/05 04:44:13;;;;;;;4.37;4.17;;;15.60;99.90;;;;;;5073018;28;20648;-80
2022/09/05 04:46:47;;;;;;;5.40;4.90;;;15.60;99.90;;;;;;5084899;28;20183;-81
2022/09/05 04:49:30;;;;;;;5.23;4.83;;;15.60;99.90;;;;;;5096803;28;20203;-82
2022/09/05 04:52:30;;;;;;;4.70;4.40;;;15.70;99.90;;;;;;5076658;28;20171;-81
2022/09/05 04:55:09;;;;;;;5.13;4.83;;;15.70;99.90;;;;;;5073594;28;20163;-81
2022/09/05 04:58:04;;;;;;;4.80;4.40;;;15.70;99.90;;;;;;5073182;28;20305;-81
2022/09/05 05:00:38;;;;;;;4.50;4.20;;;15.70;99.90;;;;;;5071534;28;20273;-83
2022/09/05 05:03:15;;;;;;;7.47;4.77;;;15.80;99.90;;;;;;5073271;28;20166;-83
2022/09/05 05:05:46;;;;;;;5.47;5.07;;;15.80;99.90;;;;;;5073346;28;20657;-84
2022/09/05 05:08:33;;;;;;;5.50;5.03;;;15.70;99.90;;;;;;5073006;28;20212;-84
2022/09/05 05:11:08;;;;;;;5.60;5.20;;;15.80;99.90;;;;;;5074399;28;20159;-81
2022/09/05 05:14:01;;;;;;;6.20;5.57;;;15.80;99.90;;;;;;5075448;28;20167;-83
2022/09/05 05:16:40;;;;;;;7.27;6.57;;;15.90;99.90;;;;;;5072688;28;20159;-82
2022/09/05 05:19:41;;;;;;;6.07;5.57;;;15.90;99.90;;;;;;5073668;28;20434;-81
2022/09/05 05:22:13;;;;;;;5.90;5.50;;;16.00;99.90;;;;;;5049873;28;20197;-82
2022/09/05 05:24:59;;;;;;;7.90;4.90;;;16.00;99.90;;;;;;5032988;28;20176;-82
2022/09/05 05:27:51;;;;;;;5.57;5.20;;;16.10;99.90;;;;;;5033180;28;20223;-81
2022/09/05 05:30:30;;;;;;;6.20;5.70;;;16.20;99.90;;;;;;5032927;28;20197;-82
2022/09/05 05:32:59;;;;;;;6.63;5.83;;;16.30;99.90;;;;;;5049075;28;20195;-81
2022/09/05 05:35:29;;;;;;;5.87;5.47;;;16.40;99.90;;;;;;5050716;28;20249;-82
2022/09/05 05:38:16;;;;;;;6.20;5.70;;;16.40;99.90;;;;;;5051344;28;20295;-82
2022/09/05 05:40:52;;;;;;;6.83;5.63;;;16.40;99.90;;;;;;5052218;28;20178;-82
2022/09/05 05:43:52;;;;;;;5.60;5.20;;;16.50;99.90;;;;;;5253967;22;20586;-83
2022/09/05 05:46:31;;;;;;;5.77;5.37;;;16.50;99.90;;;;;;5026093;28;20540;-82
2022/09/05 05:49:48;;;;;;;6.03;5.50;;;16.50;99.90;;;;;;5033826;28;20196;-83
2022/09/05 05:52:39;;;;;;;7.13;5.90;;;16.60;99.90;;;;;;4976758;28;20189;-81
2022/09/05 05:55:41;;;;;;;7.17;6.27;;;16.70;99.90;;;;;;4973424;28;20193;-80
2022/09/05 05:58:34;;;;;;;6.10;5.50;;;16.70;99.90;;;;;;4971275;28;20170;-81
2022/09/05 06:01:35;;;;;;;6.43;5.40;;;16.80;99.90;;;;;;4970566;28;20189;-81
2022/09/05 06:04:37;;;;;;;8.47;5.17;;;16.90;99.90;;;;;;4970785;28;20539;-81
2022/09/05 06:07:27;;;;;;;6.60;5.20;;;16.90;99.90;;;;;;4970818;28;20162;-81
2022/09/05 06:10:30;;;;;;;5.80;5.30;;;17.00;99.90;;;;;;4970709;28;20203;-82
2022/09/05 06:13:40;;;;;;;5.10;4.70;;;17.10;99.90;;;;;;4970458;28;20181;-81
2022/09/05 06:16:14;;;;;;;5.70;5.20;;;17.20;99.90;;;;;;4931723;29;20650;-81
2022/09/05 06:18:46;;;;;;;5.77;5.23;;;17.20;99.90;;;;;;4931863;29;20608;-81
2022/09/05 06:21:50;;;;;;;6.13;4.80;;;17.30;99.90;;;;;;4931918;29;20536;-81
2022/09/05 06:24:42;;;;;;;6.33;4.80;;;17.30;99.90;;;;;;4917332;29;20598;-81
2022/09/05 06:27:10;;;;;;;7.23;6.53;;;17.50;99.90;;;;;;4949740;28;20197;-80
2022/09/05 06:29:58;;;;;;;5.50;4.97;;;17.50;99.90;;;;;;4987323;28;20304;-81
2022/09/05 06:32:42;;;;;;;5.07;4.67;;;17.60;99.90;;;;;;4990338;28;20185;-81
2022/09/05 06:35:46;;;;;;;5.23;4.80;;;17.60;99.90;;;;;;4989809;28;20550;-82
2022/09/05 06:38:50;;;;;;;5.93;5.20;;;17.80;99.90;;;;;;4978217;28;20198;-82
2022/09/05 06:41:43;;;;;;;4.63;4.33;;;17.80;99.90;;;;;;4973164;28;20291;-81
2022/09/05 06:44:12;;;;;;;5.83;4.50;;;17.90;99.90;;;;;;4988608;28;20260;-82
2022/09/05 06:46:42;;;;;;;5.57;5.07;;;18.00;99.90;;;;;;4989075;28;20268;-81
2022/09/05 06:49:32;;;;;;;4.90;4.50;;;18.10;99.90;;;;;;4989389;28;20221;-81
2022/09/05 06:52:33;;;;;;;5.37;4.77;;;18.20;99.90;;;;;;4998481;28;20180;-82
2022/09/05 06:55:01;;;;;;;5.23;4.67;;;18.30;99.90;;;;;;4979273;28;20191;-82
2022/09/05 06:57:30;;;;;;;6.33;4.90;;;18.40;99.90;;;;;;5030985;28;20268;-81
2022/09/05 07:00:19;;;;;;;5.33;4.93;;;18.50;99.90;;;;;;5031022;28;21043;-81
2022/09/05 07:03:22;;;;;;;5.17;4.70;;;18.60;99.90;;;;;;5030768;28;20164;-81
2022/09/05 07:05:57;;;;;;;7.60;4.80;;;18.60;99.90;;;;;;5045834;28;20180;-82
2022/09/05 07:08:52;;;;;;;5.17;4.47;;;18.70;99.90;;;;;;5030600;28;20203;-82
2022/09/05 07:11:23;;;;;;;5.50;5.00;;;18.70;99.90;;;;;;5008406;28;20184;-82
2022/09/05 07:13:59;;;;;;;5.20;4.70;;;18.80;99.90;;;;;;5030601;28;20176;-82
2022/09/05 07:16:58;;;;;;;8.07;5.10;;;18.90;99.90;;;;;;5029397;28;20705;-81
2022/09/05 07:19:30;;;;;;;6.87;4.87;;;19.00;99.90;;;;;;5030606;28;20199;-82
2022/09/05 07:22:12;;;;;;;8.13;5.10;;;19.10;99.90;;;;;;5030474;28;20278;-83
2022/09/05 07:24:43;;;;;;;5.67;5.17;;;19.10;99.90;;;;;;5030447;28;20177;-81
2022/09/05 07:27:12;;;;;;;4.83;4.53;;;19.20;99.90;;;;;;5030662;28;20161;-83
2022/09/05 07:29:44;;;;;;;5.53;4.40;;;19.30;99.90;;;;;;5030180;28;20334;-82
2022/09/05 07:32:16;;;;;;;5.37;4.87;;;19.40;99.90;;;;;;5030477;28;20531;-82
2022/09/05 07:34:46;;;;;;;4.80;4.30;;;19.50;99.90;;;;;;5032316;28;20165;-83
2022/09/05 07:37:24;;;;;;;4.73;4.20;;;19.60;99.90;;;;;;5030272;28;20251;-82
2022/09/05 07:39:59;;;;;;;4.73;4.33;;;19.60;99.90;;;;;;5030022;28;20175;-83
2022/09/05 07:42:35;;;;;;;4.37;4.10;;;19.70;99.90;;;;;;5030049;28;20547;-82
2022/09/05 07:45:09;;;;;;;4.70;4.30;;;19.80;99.90;;;;;;5030011;28;20179;-82
2022/09/05 07:47:47;;;;;;;5.10;4.73;;;19.80;99.90;;;;;;5030295;28;20161;-81
2022/09/05 07:50:14;;;;;;;4.80;4.50;;;19.90;99.90;;;;;;5030105;28;20180;-81
2022/09/05 07:52:43;;;;;;;4.03;3.83;;;20.00;99.90;;;;;;5030086;28;20651;-81
2022/09/05 07:55:20;;;;;;;4.90;4.47;;;20.10;99.90;;;;;;5030117;28;20180;-81
2022/09/05 07:57:47;;;;;;;4.80;4.40;;;20.10;99.90;;;;;;5030879;28;20160;-81
2022/09/05 08:00:19;;;;;;;4.70;4.40;;;20.20;99.90;;;;;;5031991;28;20284;-82
2022/09/05 08:02:46;;;;;;;4.40;4.10;;;20.30;99.90;;;;;;5033167;28;20255;-81
2022/09/05 08:05:21;;;;;;;5.10;4.03;;;20.40;99.90;;;;;;5035364;28;20188;-82
2022/09/05 08:08:00;;;;;;;4.33;3.93;;;20.40;99.90;;;;;;5052384;28;20164;-81
2022/09/05 08:10:34;;;;;;;4.67;4.40;;;20.60;99.90;;;;;;5035891;28;20207;-82
2022/09/05 08:13:24;;;;;;;5.17;4.77;;;20.70;99.90;;;;;;5031987;28;20156;-82
2022/09/05 08:15:54;;;;;;;4.80;4.40;;;20.80;99.90;;;;;;5022015;28;20652;-82
2022/09/05 08:18:35;;;;;;;4.93;4.63;;;20.90;99.90;;;;;;5034297;28;20235;-81
2022/09/05 08:21:40;;;;;;;4.60;4.27;;;21.00;99.90;;;;;;5048453;28;20578;-81
2022/09/05 08:24:23;;;;;;;5.40;4.40;;;21.00;99.90;;;;;;5048853;28;20196;-82
2022/09/05 08:27:03;;;;;;;4.53;4.20;;;21.10;99.90;;;;;;5032334;28;20180;-82
2022/09/05 08:30:00;;;;;;;4.37;4.07;;;21.20;99.90;;;;;;5032735;28;20212;-81
2022/09/05 08:32:47;;;;;;;4.73;4.43;;;21.30;99.90;;;;;;4969693;28;20201;-81
2022/09/05 08:35:23;;;;;;;5.07;4.67;;;21.30;99.90;;;;;;4972497;28;20314;-81
2022/09/05 08:37:50;;;;;;;5.33;4.60;;;21.30;99.90;;;;;;4968733;28;20209;-82
2022/09/05 08:40:40;;;;;;;4.40;4.10;;;21.40;99.90;;;;;;4954370;28;20190;-83
2022/09/05 08:43:33;;;;;;;4.10;3.80;;;21.50;99.90;;;;;;4969922;28;20226;-83
2022/09/05 08:46:01;;;;;;;5.20;4.90;;;21.50;99.90;;;;;;4971866;28;20586;-82
2022/09/05 08:49:01;;;;;;;4.70;4.37;;;21.60;99.90;;;;;;4969730;28;20222;-82
2022/09/05 08:51:54;;;;;;;4.67;4.27;;;21.70;99.90;;;;;;4970312;28;20241;-82
2022/09/05 08:54:34;;;;;;;5.27;4.93;;;21.90;99.90;;;;;;4970171;28;20582;-82
2022/09/05 08:57:06;;;;;;;4.37;4.07;;;22.00;99.90;;;;;;4969478;28;20186;-82
2022/09/05 08:59:53;;;;;;;4.97;4.67;;;22.10;99.90;;;;;;4969550;28;20179;-83
2022/09/05 09:02:40;;;;;;;4.83;4.57;;;22.20;99.90;;;;;;4969405;28;20273;-82
2022/09/05 09:05:06;;;;;;;4.73;4.40;;;22.30;99.90;;;;;;4969679;28;20258;-81
2022/09/05 09:07:54;;;;;;;5.00;4.70;;;22.30;99.90;;;;;;4969730;28;20246;-82
2022/09/05 09:10:39;;;;;;;4.38;4.18;;;22.40;99.90;;;;;;5032411;28;20560;-82
2022/09/05 09:13:40;;;;;;;4.40;4.20;;;22.50;99.90;;;;;;5033101;28;20191;-83
2022/09/05 09:16:29;;;;;;;5.55;5.25;;;22.50;99.90;;;;;;5033045;28;20164;-83
2022/09/05 09:19:09;;;;;;;6.68;6.28;;;22.60;99.90;;;;;;5032823;28;20157;-81
2022/09/05 09:22:22;;;;;;;6.60;6.10;;;22.60;99.90;;;;;;5033076;28;20527;-82
2022/09/05 09:25:08;;;;;;;5.40;5.10;;;22.60;99.90;;;;;;5032693;28;20702;-82
2022/09/05 09:28:10;;;;;;;5.00;4.70;;;22.70;99.90;;;;;;5032879;28;20638;-82
2022/09/05 09:30:42;;;;;;;4.97;4.57;;;22.60;99.90;;;;;;5032668;28;20710;-82
2022/09/05 09:33:15;;;;;;;5.13;4.78;;;22.60;99.90;;;;;;5034441;28;20690;-82
2022/09/05 09:35:53;;;;;;;4.88;4.57;;;22.80;99.90;;;;;;5034827;28;20165;-81
2022/09/05 09:38:54;;;;;;;5.10;4.70;;;23.00;99.90;;;;;;5035182;28;20168;-81
2022/09/05 09:41:50;;;;;;;4.63;4.43;;;23.20;99.90;;;;;;5022368;28;20227;-82
2022/09/05 09:45:07;;;;;;;5.15;4.80;;;23.40;99.90;;;;;;5035159;28;20240;-81
2022/09/05 09:48:15;;;;;;;6.38;4.70;;;23.70;99.90;;;;;;5048019;28;20239;-83
2022/09/05 09:51:02;;;;;;;4.80;4.40;;;24.00;99.90;;;;;;5027803;28;20216;-82
2022/09/05 09:53:35;;;;;;;4.60;4.30;;;24.00;99.90;;;;;;5034443;28;20180;-81
2022/09/05 09:56:11;;;;;;;4.65;4.45;;;23.90;99.90;;;;;;5034342;28;20765;-82
2022/09/05 09:59:11;;;;;;;4.80;4.45;;;24.00;99.90;;;;;;5034025;28;20546;-84
2022/09/05 10:01:56;;;;;;;4.88;4.43;;;24.00;99.90;;;;;;5034387;28;20192;-82
2022/09/05 10:04:41;;;;;;;4.45;4.15;;;24.10;99.90;;;;;;5033981;28;20160;-82
2022/09/05 10:07:06;;;;;;;5.15;4.13;;;24.20;99.90;;;;;;5049837;28;20226;-82
2022/09/05 10:10:06;;;;;;;4.22;3.92;;;24.30;99.90;;;;;;5034345;28;20703;-82
2022/09/05 10:12:56;;;;;;;4.25;3.95;;;24.40;99.90;;;;;;5049284;28;20180;-82
2022/09/05 10:15:36;;;;;;;4.70;3.95;;;24.40;99.90;;;;;;5033048;28;20200;-82
2022/09/05 10:18:17;;;;;;;4.20;4.00;;;24.40;99.90;;;;;;5031945;28;20164;-82
2022/09/05 10:20:55;;;;;;;4.40;4.00;;;24.50;99.90;;;;;;5047509;28;20173;-81
2022/09/05 10:23:35;;;;;;;4.45;4.00;;;24.40;99.90;;;;;;5032120;28;20563;-81
2022/09/05 10:26:32;;;;;;;5.07;4.57;;;24.40;99.90;;;;;;5033686;28;20192;-81
2022/09/05 10:29:37;;;;;;;4.50;4.30;;;24.40;99.90;;;;;;5033625;28;20314;-82
2022/09/05 10:32:30;;;;;;;4.70;4.40;;;24.50;99.90;;;;;;5034785;28;20509;-82
2022/09/05 10:34:58;;;;;;;5.72;5.22;;;24.60;99.90;;;;;;5023191;28;20276;-82
2022/09/05 10:37:48;;;;;;;4.28;4.07;;;24.40;99.90;;;;;;5033892;28;20173;-82
2022/09/05 10:40:24;;;;;;;4.50;3.97;;;24.40;99.90;;;;;;5030259;28;20186;-83
2022/09/05 10:42:53;;;;;;;4.07;3.92;;;24.30;99.90;;;;;;5030904;28;20236;-82
2022/09/05 10:45:53;;;;;;;7.97;4.47;;;24.40;99.90;;;;;;5031212;28;20203;-82
2022/09/05 10:48:37;;;;;;;4.50;4.03;;;24.50;99.90;;;;;;5026636;28;20243;-82
2022/09/05 10:51:20;;;;;;;4.35;4.05;;;24.70;99.90;;;;;;5031127;28;20164;-82
2022/09/05 10:54:10;;;;;;;6.65;3.90;;;24.90;99.90;;;;;;5031121;28;20671;-82
2022/09/05 10:56:48;;;;;;;4.28;3.85;;;24.80;99.90;;;;;;5030818;28;20165;-83
2022/09/05 10:59:57;;;;;;;4.18;3.97;;;24.70;99.90;;;;;;5032335;28;20197;-83
2022/09/05 11:02:26;;;;;;;4.10;3.90;;;24.90;99.90;;;;;;5031257;28;20243;-83
2022/09/05 11:05:07;;;;;;;4.03;3.80;;;24.90;99.90;;;;;;5030841;28;20583;-83
2022/09/05 11:08:05;;;;;;;4.25;3.97;;;25.00;99.90;;;;;;5030961;28;20195;-82
2022/09/05 11:10:44;;;;;;;4.22;4.03;;;24.80;99.90;;;;;;5030860;28;20204;-83
2022/09/05 11:13:33;;;;;;;4.63;4.38;;;24.70;99.90;;;;;;5030654;28;20585;-82
2022/09/05 11:16:44;;;;;;;5.10;4.72;;;24.60;99.90;;;;;;5030726;28;20694;-82
2022/09/05 11:19:21;;;;;;;4.65;4.25;;;24.40;99.90;;;;;;4969182;28;20197;-82
2022/09/05 11:22:06;;;;;;;4.22;3.97;;;24.40;99.90;;;;;;5027145;28;20191;-82
2022/09/05 11:24:42;;;;;;;4.60;4.30;;;24.70;99.90;;;;;;5030591;28;20195;-83
2022/09/05 11:27:33;;;;;;;4.50;4.20;;;24.80;99.90;;;;;;5035409;28;20187;-83
2022/09/05 11:30:09;;;;;;;4.50;4.30;;;25.10;99.90;;;;;;5043551;28;20658;-83
2022/09/05 11:32:59;;;;;;;4.70;4.50;;;25.00;99.90;;;;;;5032560;28;20152;-82
2022/09/05 11:35:28;;;;;;;4.40;4.20;;;24.80;99.90;;;;;;5030264;28;20236;-81
2022/09/05 11:38:09;;;;;;;4.60;4.18;;;24.80;99.90;;;;;;5030524;28;20180;-82
2022/09/05 11:40:42;;;;;;;4.63;4.32;;;24.60;99.90;;;;;;5030307;28;20568;-82
2022/09/05 11:43:23;;;;;;;4.55;4.25;;;24.70;99.90;;;;;;5028747;28;20230;-83
2022/09/05 11:45:52;;;;;;;4.85;4.40;;;24.80;99.90;;;;;;5045422;28;20223;-82
2022/09/05 11:48:55;;;;;;;4.43;4.20;;;24.90;99.90;;;;;;5045321;28;20235;-82
2022/09/05 11:51:54;;;;;;;4.22;3.92;;;25.00;99.90;;;;;;5030099;28;20221;-82
2022/09/05 11:54:50;;;;;;;4.68;4.40;;;25.20;99.90;;;;;;5030044;28;20259;-83
2022/09/05 11:57:22;;;;;;;5.38;5.07;;;25.20;99.90;;;;;;5030217;28;20525;-84
2022/09/05 12:00:12;;;;;;;5.18;4.78;;;25.30;99.90;;;;;;5030098;28;20200;-83
2022/09/05 12:03:16;;;;;;;5.30;5.00;;;25.40;99.90;;;;;;5030546;28;20199;-82
2022/09/05 12:06:00;;;;;;;5.50;5.20;;;25.50;99.90;;;;;;5030192;28;20172;-81
2022/09/05 12:08:30;;;;;;;5.07;4.55;;;25.50;99.90;;;;;;5029859;28;20235;-82
2022/09/05 12:11:09;;;;;;;8.48;4.72;;;25.50;99.90;;;;;;5029951;28;20188;-82
2022/09/05 12:13:47;;;;;;;5.15;4.82;;;25.60;99.90;;;;;;5028764;28;20172;-83
2022/09/05 12:16:46;;;;;;;4.75;4.38;;;25.60;99.90;;;;;;5029785;28;20168;-81
2022/09/05 12:19:17;;;;;;;4.82;4.63;;;25.70;99.90;;;;;;5029724;28;20211;-82
2022/09/05 12:22:01;;;;;;;4.70;4.40;;;25.80;99.90;;;;;;5030333;28;20160;-81
2022/09/05 12:24:35;;;;;;;4.22;4.03;;;25.80;99.90;;;;;;5030173;28;20616;-81
2022/09/05 12:27:04;;;;;;;5.00;4.70;;;25.50;99.90;;;;;;5030090;28;20582;-81
2022/09/05 12:29:36;;;;;;;4.68;4.47;;;25.40;99.90;;;;;;5029810;28;20512;-82
2022/09/05 12:32:06;;;;;;;5.13;4.70;;;25.20;99.90;;;;;;5028339;28;20176;-82
2022/09/05 12:34:50;;;;;;;4.60;4.30;;;25.20;99.90;;;;;;5029688;28;20230;-82
2022/09/05 12:37:24;;;;;;;5.15;4.85;;;25.20;99.90;;;;;;5029655;28;20252;-82
2022/09/05 12:39:50;;;;;;;5.00;4.60;;;25.10;99.90;;;;;;5029756;28;20654;-82
2022/09/05 12:42:32;;;;;;;5.15;4.70;;;25.00;99.90;;;;;;5029544;28;20177;-82
2022/09/05 12:45:31;;;;;;;4.88;4.57;;;24.90;99.90;;;;;;5033613;28;20244;-83
2022/09/05 12:48:08;;;;;;;5.18;4.88;;;24.90;99.90;;;;;;5019623;28;20518;-82
2022/09/05 12:50:55;;;;;;;6.35;4.95;;;24.80;99.90;;;;;;5048627;28;20543;-82
2022/09/05 12:53:34;;;;;;;5.00;4.60;;;24.70;99.90;;;;;;5033480;28;20177;-82
2022/09/05 12:56:13;;;;;;;5.13;4.82;;;24.80;99.90;;;;;;5034151;28;20664;-83
2022/09/05 12:58:42;;;;;;;5.00;4.70;;;24.90;99.90;;;;;;5034809;28;20160;-83
2022/09/05 13:01:17;;;;;;;5.60;5.20;;;24.80;99.90;;;;;;5033740;28;20628;-83
2022/09/05 13:03:55;;;;;;;5.50;5.10;;;24.90;99.90;;;;;;5035320;28;20179;-83
2022/09/05 13:06:34;;;;;;;4.88;4.63;;;24.80;99.90;;;;;;5059615;28;20406;-81
2022/09/05 13:09:16;;;;;;;5.40;5.00;;;24.90;99.90;;;;;;5052476;28;20283;-83
2022/09/05 13:12:09;;;;;;;5.30;5.00;;;24.90;99.90;;;;;;5035328;28;20184;-83
2022/09/05 13:15:14;;;;;;;4.75;4.45;;;24.80;99.90;;;;;;5032131;28;20632;-83
2022/09/05 13:18:03;;;;;;;5.68;5.07;;;24.70;99.90;;;;;;5032882;28;20183;-83
2022/09/05 13:20:43;;;;;;;4.80;4.60;;;24.70;99.90;;;;;;5033027;28;20629;-83
2022/09/05 13:23:38;;;;;;;4.60;4.30;;;24.70;99.90;;;;;;5032908;28;20169;-82
2022/09/05 13:26:04;;;;;;;4.60;4.30;;;24.60;99.90;;;;;;5048048;28;20524;-82
2022/09/05 13:28:50;;;;;;;5.22;4.88;;;24.70;99.90;;;;;;5032492;28;20208;-82
2022/09/05 13:31:58;;;;;;;4.72;4.35;;;24.70;99.90;;;;;;5032793;28;20207;-82
2022/09/05 13:34:35;;;;;;;4.72;4.45;;;24.90;99.90;;;;;;5032371;28;20635;-83
2022/09/05 13:37:09;;;;;;;4.60;4.40;;;25.10;99.90;;;;;;5032656;28;20183;-83
2022/09/05 13:39:48;;;;;;;4.93;4.63;;;25.30;99.90;;;;;;5032129;28;20630;-82
2022/09/05 13:42:18;;;;;;;4.60;4.40;;;25.30;99.90;;;;;;5032405;28;20534;-82
2022/09/05 13:44:48;;;;;;;4.53;4.32;;;25.50;99.90;;;;;;5032021;28;20307;-83
2022/09/05 13:47:32;;;;;;;4.90;4.60;;;25.60;99.90;;;;;;5030918;28;20297;-82
2022/09/05 13:50:21;;;;;;;4.70;4.40;;;25.70;99.90;;;;;;5032350;28;20204;-82
2022/09/05 13:52:54;;;;;;;4.40;4.20;;;25.70;99.90;;;;;;5032082;28;20165;-82
2022/09/05 13:55:20;;;;;;;5.03;4.43;;;25.70;99.90;;;;;;5031881;28;20161;-82
2022/09/05 13:58:06;;;;;;;4.90;4.60;;;25.70;99.90;;;;;;5032475;28;20619;-81
2022/09/05 14:00:34;;;;;;;5.15;4.72;;;25.70;99.90;;;;;;5030755;28;20192;-81
2022/09/05 14:03:07;;;;;;;4.60;4.35;;;25.70;99.90;;;;;;5032053;28;20204;-81
2022/09/05 14:05:38;;;;;;;4.50;4.05;;;25.60;99.90;;;;;;5031950;28;20169;-84
2022/09/05 14:08:16;;;;;;;6.03;5.40;;;25.40;99.90;;;;;;5031778;28;20236;-84
2022/09/05 14:11:24;;;;;;;4.75;4.35;;;25.40;99.90;;;;;;5031845;28;20569;-84
2022/09/05 14:14:03;;;;;;;4.88;4.47;;;25.30;99.90;;;;;;4970516;28;20253;-81